Aérodrome :
LOGIN :

S'inscrire | Disclaimer

   EN    FR    IT 

 










Légende :    VFR   VFR Marginal   IFR   IFR Intensif   IFR Très Intensif
Visi : 
Plafond : 
>= 8 km
>= 3000ft
5 à 8 km
1000 à 3000 ft
1500m à 5 km
500 à 1000 ft
800 à 1500m
200 à 500 ft
< 800m
< 200 ft
Symboles :   Orages  Brouillard  Fortes neiges  Fortes précipitations  Vent > 20 kt
SIGMETs :   Divers  Orages  Givrage  Turbulence  Onde Orograph.  Cendres Volcan.







- Altitude de l'aérodrome : 37 ft


EHVL - Vlieland Heliport

DERNIER METAR :
  • 240855Z AUTO 31014KT 9999 FEW014 SCT016 OVC022 15/11 Q1024 WHT

METARs EXPIRÉS :
  • 240825Z AUTO 32013KT 9999 SCT015 BKN019 OVC024 14/11 Q1024 WHT
  • 240755Z AUTO 32014KT 9999 FEW015 OVC024 14/11 Q1024 WHT
  • 240725Z AUTO 32013KT 9999 BKN026 OVC030 14/10 Q1023 BLU
  • 240655Z AUTO 32014KT 9999 FEW015 BKN028 OVC032 14/11 Q1023 BLU
  • 240625Z AUTO 33015KT 9999 BKN031 BKN041 BKN052 14/10 Q1023 BLU
  • 240555Z AUTO 33015KT 9999 BKN034 OVC038 14/09 Q1023 BLU

Prévision TAF périmée.
Pas de NOTAMs connus pour ce terrain.



MET'MAP, la Météo Aéronautique d'un coup d'oeil ! - Copyright ORBIFLY Décembre 2007 - Disclaimer

ORBIFLY MET'MAP TEAM :

Programmation & Développement : Alexandra Zaïnal
Conception & Développement : Baudouin d'Aumeries
Co-Programmation & Développement : Marc-Olivier Méhu
Soutien technique & logistique : Manuel Goepfert

Contact : metmap@orbifly.com




SOURCES & CREDITS :

   NOAA